sensor_id;sensor_type;location;lat;lon;timestamp;temperature;humidity
25092;DHT22;13082;52.374;4.946;2023-06-24T00:01:23;21.00;99.90
25092;DHT22;13082;52.374;4.946;2023-06-24T00:03:49;21.10;99.90
25092;DHT22;13082;52.374;4.946;2023-06-24T00:06:18;21.10;99.90
25092;DHT22;13082;52.374;4.946;2023-06-24T00:08:48;21.00;99.90
25092;DHT22;13082;52.374;4.946;2023-06-24T00:11:14;20.80;99.90
25092;DHT22;13082;52.374;4.946;2023-06-24T00:13:41;20.90;99.90
25092;DHT22;13082;52.374;4.946;2023-06-24T00:16:07;20.80;99.90
25092;DHT22;13082;52.374;4.946;2023-06-24T00:18:34;20.70;99.90
25092;DHT22;13082;52.374;4.946;2023-06-24T00:21:01;20.70;99.90
25092;DHT22;13082;52.374;4.946;2023-06-24T00:23:28;20.70;99.90
25092;DHT22;13082;52.374;4.946;2023-06-24T00:25:54;20.70;99.90
25092;DHT22;13082;52.374;4.946;2023-06-24T00:28:20;20.70;99.90
25092;DHT22;13082;52.374;4.946;2023-06-24T00:30:47;20.80;99.90
25092;DHT22;13082;52.374;4.946;2023-06-24T00:33:13;20.80;99.90
25092;DHT22;13082;52.374;4.946;2023-06-24T00:35:39;20.80;99.90
25092;DHT22;13082;52.374;4.946;2023-06-24T00:38:05;20.80;99.90
25092;DHT22;13082;52.374;4.946;2023-06-24T00:40:31;20.80;99.90
25092;DHT22;13082;52.374;4.946;2023-06-24T00:42:58;20.70;99.90
25092;DHT22;13082;52.374;4.946;2023-06-24T00:45:24;20.60;99.90
25092;DHT22;13082;52.374;4.946;2023-06-24T00:47:50;20.60;99.90
25092;DHT22;13082;52.374;4.946;2023-06-24T00:50:17;20.50;99.90
25092;DHT22;13082;52.374;4.946;2023-06-24T00:52:43;20.40;99.90
25092;DHT22;13082;52.374;4.946;2023-06-24T00:55:13;20.30;99.90
25092;DHT22;13082;52.374;4.946;2023-06-24T00:57:44;20.20;99.90
25092;DHT22;13082;52.374;4.946;2023-06-24T01:00:11;20.10;99.90
25092;DHT22;13082;52.374;4.946;2023-06-24T01:02:40;20.00;99.90
25092;DHT22;13082;52.374;4.946;2023-06-24T01:05:08;20.10;99.90
25092;DHT22;13082;52.374;4.946;2023-06-24T01:07:35;20.00;99.90
25092;DHT22;13082;52.374;4.946;2023-06-24T01:10:03;20.00;99.90
25092;DHT22;13082;52.374;4.946;2023-06-24T01:12:32;20.10;99.90
25092;DHT22;13082;52.374;4.946;2023-06-24T01:14:58;20.10;99.90
25092;DHT22;13082;52.374;4.946;2023-06-24T01:17:31;20.20;99.90
25092;DHT22;13082;52.374;4.946;2023-06-24T01:23:06;20.40;99.90
25092;DHT22;13082;52.374;4.946;2023-06-24T01:25:59;20.30;99.90
25092;DHT22;13082;52.374;4.946;2023-06-24T01:29:09;20.50;99.90
25092;DHT22;13082;52.374;4.946;2023-06-24T01:34:17;20.30;99.90
25092;DHT22;13082;52.374;4.946;2023-06-24T01:36:55;20.30;99.90
25092;DHT22;13082;52.374;4.946;2023-06-24T01:39:23;20.20;99.90
25092;DHT22;13082;52.374;4.946;2023-06-24T01:41:58;20.20;99.90
25092;DHT22;13082;52.374;4.946;2023-06-24T01:44:27;20.10;99.90
25092;DHT22;13082;52.374;4.946;2023-06-24T01:46:55;20.10;99.90
25092;DHT22;13082;52.374;4.946;2023-06-24T01:49:23;20.10;99.90
25092;DHT22;13082;52.374;4.946;2023-06-24T01:51:55;20.10;99.90
25092;DHT22;13082;52.374;4.946;2023-06-24T01:54:22;20.10;99.90
25092;DHT22;13082;52.374;4.946;2023-06-24T01:56:49;20.10;99.90
25092;DHT22;13082;52.374;4.946;2023-06-24T01:59:17;20.00;99.90
25092;DHT22;13082;52.374;4.946;2023-06-24T02:01:45;20.00;99.90
25092;DHT22;13082;52.374;4.946;2023-06-24T02:04:13;20.00;99.90
25092;DHT22;13082;52.374;4.946;2023-06-24T02:06:41;20.00;99.90
25092;DHT22;13082;52.374;4.946;2023-06-24T02:09:08;19.80;99.90
25092;DHT22;13082;52.374;4.946;2023-06-24T02:11:35;19.80;99.90
25092;DHT22;13082;52.374;4.946;2023-06-24T02:14:03;19.70;99.90
25092;DHT22;13082;52.374;4.946;2023-06-24T02:16:30;19.70;99.90
25092;DHT22;13082;52.374;4.946;2023-06-24T02:18:56;19.60;99.90
25092;DHT22;13082;52.374;4.946;2023-06-24T02:21:24;19.60;99.90
25092;DHT22;13082;52.374;4.946;2023-06-24T02:23:51;19.60;99.90
25092;DHT22;13082;52.374;4.946;2023-06-24T02:26:17;19.60;99.90
25092;DHT22;13082;52.374;4.946;2023-06-24T02:28:47;19.60;99.90
25092;DHT22;13082;52.374;4.946;2023-06-24T02:31:14;19.50;99.90
25092;DHT22;13082;52.374;4.946;2023-06-24T02:33:40;19.40;99.90
25092;DHT22;13082;52.374;4.946;2023-06-24T02:36:06;19.40;99.90
25092;DHT22;13082;52.374;4.946;2023-06-24T02:38:32;19.40;99.90
25092;DHT22;13082;52.374;4.946;2023-06-24T02:40:57;19.40;99.90
25092;DHT22;13082;52.374;4.946;2023-06-24T02:43:23;19.40;99.90
25092;DHT22;13082;52.374;4.946;2023-06-24T02:45:49;19.40;99.90
25092;DHT22;13082;52.374;4.946;2023-06-24T02:48:16;19.50;99.90
25092;DHT22;13082;52.374;4.946;2023-06-24T02:50:44;19.50;99.90
25092;DHT22;13082;52.374;4.946;2023-06-24T02:53:14;19.50;99.90
25092;DHT22;13082;52.374;4.946;2023-06-24T02:55:41;19.50;99.90
25092;DHT22;13082;52.374;4.946;2023-06-24T02:58:08;19.40;99.90
25092;DHT22;13082;52.374;4.946;2023-06-24T03:00:35;19.40;99.90
25092;DHT22;13082;52.374;4.946;2023-06-24T03:03:02;19.30;99.90
25092;DHT22;13082;52.374;4.946;2023-06-24T03:05:30;19.20;99.90
25092;DHT22;13082;52.374;4.946;2023-06-24T03:07:57;19.20;99.90
25092;DHT22;13082;52.374;4.946;2023-06-24T03:10:23;19.20;99.90
25092;DHT22;13082;52.374;4.946;2023-06-24T03:12:50;19.20;99.90
25092;DHT22;13082;52.374;4.946;2023-06-24T03:15:15;19.20;99.90
25092;DHT22;13082;52.374;4.946;2023-06-24T03:17:41;19.10;99.90
25092;DHT22;13082;52.374;4.946;2023-06-24T03:20:07;19.00;99.90
25092;DHT22;13082;52.374;4.946;2023-06-24T03:22:33;19.00;99.90
25092;DHT22;13082;52.374;4.946;2023-06-24T03:24:59;19.00;99.90
25092;DHT22;13082;52.374;4.946;2023-06-24T03:27:25;19.00;99.90
25092;DHT22;13082;52.374;4.946;2023-06-24T03:29:50;19.10;99.90
25092;DHT22;13082;52.374;4.946;2023-06-24T03:32:16;19.10;99.90
25092;DHT22;13082;52.374;4.946;2023-06-24T03:34:41;19.10;99.90
25092;DHT22;13082;52.374;4.946;2023-06-24T03:37:07;19.00;99.90
25092;DHT22;13082;52.374;4.946;2023-06-24T03:39:32;19.10;99.90
25092;DHT22;13082;52.374;4.946;2023-06-24T03:41:58;19.00;99.90
25092;DHT22;13082;52.374;4.946;2023-06-24T03:44:24;19.00;99.90
25092;DHT22;13082;52.374;4.946;2023-06-24T03:46:49;18.90;99.90
25092;DHT22;13082;52.374;4.946;2023-06-24T03:49:15;18.90;99.90
25092;DHT22;13082;52.374;4.946;2023-06-24T03:51:40;19.00;99.90
25092;DHT22;13082;52.374;4.946;2023-06-24T03:54:06;19.00;99.90
25092;DHT22;13082;52.374;4.946;2023-06-24T03:56:31;19.00;99.90
25092;DHT22;13082;52.374;4.946;2023-06-24T03:58:57;19.00;99.90
25092;DHT22;13082;52.374;4.946;2023-06-24T04:01:22;19.10;99.90
25092;DHT22;13082;52.374;4.946;2023-06-24T04:03:48;19.10;99.90
25092;DHT22;13082;52.374;4.946;2023-06-24T04:06:14;19.10;99.90
25092;DHT22;13082;52.374;4.946;2023-06-24T04:08:39;19.10;99.90
25092;DHT22;13082;52.374;4.946;2023-06-24T04:11:05;19.10;99.90
25092;DHT22;13082;52.374;4.946;2023-06-24T04:13:32;19.20;99.90
25092;DHT22;13082;52.374;4.946;2023-06-24T04:15:57;19.20;99.90
25092;DHT22;13082;52.374;4.946;2023-06-24T04:18:23;19.20;99.90
25092;DHT22;13082;52.374;4.946;2023-06-24T04:20:49;19.20;99.90
25092;DHT22;13082;52.374;4.946;2023-06-24T04:23:14;19.20;99.90
25092;DHT22;13082;52.374;4.946;2023-06-24T04:25:41;19.20;99.90
25092;DHT22;13082;52.374;4.946;2023-06-24T04:28:07;19.20;99.90
25092;DHT22;13082;52.374;4.946;2023-06-24T04:30:32;19.20;99.90
25092;DHT22;13082;52.374;4.946;2023-06-24T04:33:00;19.20;99.90
25092;DHT22;13082;52.374;4.946;2023-06-24T04:35:26;19.20;99.90
25092;DHT22;13082;52.374;4.946;2023-06-24T04:37:52;19.20;99.90
25092;DHT22;13082;52.374;4.946;2023-06-24T04:40:18;19.20;99.90
25092;DHT22;13082;52.374;4.946;2023-06-24T04:42:45;19.20;99.90
25092;DHT22;13082;52.374;4.946;2023-06-24T04:45:10;19.20;99.90
25092;DHT22;13082;52.374;4.946;2023-06-24T04:47:36;19.20;99.90
25092;DHT22;13082;52.374;4.946;2023-06-24T04:50:02;19.20;99.90
25092;DHT22;13082;52.374;4.946;2023-06-24T04:52:28;19.20;99.90
25092;DHT22;13082;52.374;4.946;2023-06-24T04:54:54;19.20;99.90
25092;DHT22;13082;52.374;4.946;2023-06-24T04:57:38;19.20;99.90
25092;DHT22;13082;52.374;4.946;2023-06-24T05:00:04;19.20;99.90
25092;DHT22;13082;52.374;4.946;2023-06-24T05:02:30;19.20;99.90
25092;DHT22;13082;52.374;4.946;2023-06-24T05:04:55;19.30;99.90
25092;DHT22;13082;52.374;4.946;2023-06-24T05:07:21;19.30;99.90
25092;DHT22;13082;52.374;4.946;2023-06-24T05:09:47;19.30;99.90
25092;DHT22;13082;52.374;4.946;2023-06-24T05:12:13;19.30;99.90
25092;DHT22;13082;52.374;4.946;2023-06-24T05:14:39;19.40;99.90
25092;DHT22;13082;52.374;4.946;2023-06-24T05:17:05;19.40;99.90
25092;DHT22;13082;52.374;4.946;2023-06-24T05:19:31;19.40;99.90
25092;DHT22;13082;52.374;4.946;2023-06-24T05:21:57;19.40;99.90
25092;DHT22;13082;52.374;4.946;2023-06-24T05:24:22;19.40;99.90
25092;DHT22;13082;52.374;4.946;2023-06-24T05:26:49;19.30;99.90
25092;DHT22;13082;52.374;4.946;2023-06-24T05:29:16;19.40;99.90
25092;DHT22;13082;52.374;4.946;2023-06-24T05:31:42;19.30;99.90
25092;DHT22;13082;52.374;4.946;2023-06-24T05:34:08;19.30;99.90
25092;DHT22;13082;52.374;4.946;2023-06-24T05:36:34;19.30;99.90
25092;DHT22;13082;52.374;4.946;2023-06-24T05:38:59;19.30;99.90
25092;DHT22;13082;52.374;4.946;2023-06-24T05:41:25;19.40;99.90
25092;DHT22;13082;52.374;4.946;2023-06-24T05:44:06;19.40;99.90
25092;DHT22;13082;52.374;4.946;2023-06-24T05:46:32;19.60;99.90
25092;DHT22;13082;52.374;4.946;2023-06-24T05:48:57;19.60;99.90
25092;DHT22;13082;52.374;4.946;2023-06-24T05:51:23;19.70;99.90
25092;DHT22;13082;52.374;4.946;2023-06-24T05:53:49;19.80;99.90
25092;DHT22;13082;52.374;4.946;2023-06-24T05:56:14;19.70;99.90
25092;DHT22;13082;52.374;4.946;2023-06-24T05:58:40;19.70;99.90
25092;DHT22;13082;52.374;4.946;2023-06-24T06:01:07;19.70;99.90
25092;DHT22;13082;52.374;4.946;2023-06-24T06:03:32;19.80;99.90
25092;DHT22;13082;52.374;4.946;2023-06-24T06:05:58;19.90;99.90
25092;DHT22;13082;52.374;4.946;2023-06-24T06:08:24;20.00;99.90
25092;DHT22;13082;52.374;4.946;2023-06-24T06:10:49;20.20;99.90
25092;DHT22;13082;52.374;4.946;2023-06-24T06:13:15;20.40;99.90
25092;DHT22;13082;52.374;4.946;2023-06-24T06:15:40;20.50;99.90
25092;DHT22;13082;52.374;4.946;2023-06-24T06:18:06;20.60;99.90
25092;DHT22;13082;52.374;4.946;2023-06-24T06:20:31;20.70;99.90
25092;DHT22;13082;52.374;4.946;2023-06-24T06:22:57;20.80;99.90
25092;DHT22;13082;52.374;4.946;2023-06-24T06:25:23;20.90;99.90
25092;DHT22;13082;52.374;4.946;2023-06-24T06:27:49;21.00;99.90
25092;DHT22;13082;52.374;4.946;2023-06-24T06:30:15;21.00;99.90
25092;DHT22;13082;52.374;4.946;2023-06-24T06:32:40;21.10;99.90
25092;DHT22;13082;52.374;4.946;2023-06-24T06:35:07;21.10;99.90
25092;DHT22;13082;52.374;4.946;2023-06-24T06:37:33;21.20;99.90
25092;DHT22;13082;52.374;4.946;2023-06-24T06:39:59;21.30;99.90
25092;DHT22;13082;52.374;4.946;2023-06-24T06:42:25;21.40;99.90
25092;DHT22;13082;52.374;4.946;2023-06-24T06:44:50;21.50;99.90
25092;DHT22;13082;52.374;4.946;2023-06-24T06:47:16;21.50;99.90
25092;DHT22;13082;52.374;4.946;2023-06-24T06:49:41;21.60;99.90
25092;DHT22;13082;52.374;4.946;2023-06-24T06:52:07;21.70;99.90
25092;DHT22;13082;52.374;4.946;2023-06-24T06:54:33;21.80;99.90
25092;DHT22;13082;52.374;4.946;2023-06-24T06:57:03;21.90;99.90
25092;DHT22;13082;52.374;4.946;2023-06-24T06:59:30;22.00;99.90
25092;DHT22;13082;52.374;4.946;2023-06-24T07:01:55;21.90;99.90
25092;DHT22;13082;52.374;4.946;2023-06-24T07:04:22;21.90;99.90
25092;DHT22;13082;52.374;4.946;2023-06-24T07:06:48;22.00;99.90
25092;DHT22;13082;52.374;4.946;2023-06-24T07:09:13;22.10;99.90
25092;DHT22;13082;52.374;4.946;2023-06-24T07:11:40;22.10;99.90
25092;DHT22;13082;52.374;4.946;2023-06-24T07:14:06;22.20;99.90
25092;DHT22;13082;52.374;4.946;2023-06-24T07:16:32;22.30;99.90
25092;DHT22;13082;52.374;4.946;2023-06-24T07:18:57;22.40;99.90
25092;DHT22;13082;52.374;4.946;2023-06-24T07:21:23;22.40;99.90
25092;DHT22;13082;52.374;4.946;2023-06-24T07:23:48;22.50;99.90
25092;DHT22;13082;52.374;4.946;2023-06-24T07:26:14;22.50;99.90
25092;DHT22;13082;52.374;4.946;2023-06-24T07:28:40;22.60;99.90
25092;DHT22;13082;52.374;4.946;2023-06-24T07:31:05;22.70;99.90
25092;DHT22;13082;52.374;4.946;2023-06-24T07:33:31;22.70;99.90
25092;DHT22;13082;52.374;4.946;2023-06-24T07:35:57;22.80;99.90
25092;DHT22;13082;52.374;4.946;2023-06-24T07:38:22;22.90;99.90
25092;DHT22;13082;52.374;4.946;2023-06-24T07:40:48;23.00;99.90
25092;DHT22;13082;52.374;4.946;2023-06-24T07:43:14;23.00;99.90
25092;DHT22;13082;52.374;4.946;2023-06-24T07:45:40;22.90;99.90
25092;DHT22;13082;52.374;4.946;2023-06-24T07:48:05;22.90;99.90
25092;DHT22;13082;52.374;4.946;2023-06-24T07:50:33;23.00;99.90
25092;DHT22;13082;52.374;4.946;2023-06-24T07:52:58;23.10;99.90
25092;DHT22;13082;52.374;4.946;2023-06-24T07:55:24;23.20;99.90
25092;DHT22;13082;52.374;4.946;2023-06-24T07:57:50;23.30;99.90
25092;DHT22;13082;52.374;4.946;2023-06-24T08:00:16;23.30;99.90
25092;DHT22;13082;52.374;4.946;2023-06-24T08:02:42;23.50;99.90
25092;DHT22;13082;52.374;4.946;2023-06-24T08:05:08;23.50;99.90
25092;DHT22;13082;52.374;4.946;2023-06-24T08:07:35;23.50;99.90
25092;DHT22;13082;52.374;4.946;2023-06-24T08:10:00;23.70;99.90
25092;DHT22;13082;52.374;4.946;2023-06-24T08:12:26;23.80;99.90
25092;DHT22;13082;52.374;4.946;2023-06-24T08:14:52;23.80;99.90
25092;DHT22;13082;52.374;4.946;2023-06-24T08:17:17;23.80;99.90
25092;DHT22;13082;52.374;4.946;2023-06-24T08:19:43;23.80;99.90
25092;DHT22;13082;52.374;4.946;2023-06-24T08:22:08;23.80;99.90
25092;DHT22;13082;52.374;4.946;2023-06-24T08:24:34;23.90;99.90
25092;DHT22;13082;52.374;4.946;2023-06-24T08:27:00;23.80;99.90
25092;DHT22;13082;52.374;4.946;2023-06-24T08:29:25;23.80;99.90
25092;DHT22;13082;52.374;4.946;2023-06-24T08:31:51;23.90;99.90
25092;DHT22;13082;52.374;4.946;2023-06-24T08:34:16;24.00;99.90
25092;DHT22;13082;52.374;4.946;2023-06-24T08:36:42;24.00;99.90
25092;DHT22;13082;52.374;4.946;2023-06-24T08:39:08;24.10;99.90
25092;DHT22;13082;52.374;4.946;2023-06-24T08:41:33;24.10;99.90
25092;DHT22;13082;52.374;4.946;2023-06-24T08:43:59;24.00;99.90
25092;DHT22;13082;52.374;4.946;2023-06-24T08:46:25;24.00;99.90
25092;DHT22;13082;52.374;4.946;2023-06-24T08:48:59;24.00;99.90
25092;DHT22;13082;52.374;4.946;2023-06-24T08:51:29;23.90;99.90
25092;DHT22;13082;52.374;4.946;2023-06-24T08:53:58;24.00;99.90
25092;DHT22;13082;52.374;4.946;2023-06-24T08:56:24;24.20;99.90
25092;DHT22;13082;52.374;4.946;2023-06-24T08:58:51;24.10;99.90
25092;DHT22;13082;52.374;4.946;2023-06-24T09:01:17;24.30;99.90
25092;DHT22;13082;52.374;4.946;2023-06-24T09:03:43;24.40;99.90
25092;DHT22;13082;52.374;4.946;2023-06-24T09:06:08;24.50;99.90
25092;DHT22;13082;52.374;4.946;2023-06-24T09:08:34;24.60;99.90
25092;DHT22;13082;52.374;4.946;2023-06-24T09:11:01;24.70;99.90
25092;DHT22;13082;52.374;4.946;2023-06-24T09:13:36;24.70;99.90
25092;DHT22;13082;52.374;4.946;2023-06-24T09:16:14;24.70;99.90
25092;DHT22;13082;52.374;4.946;2023-06-24T09:18:40;24.70;99.90
25092;DHT22;13082;52.374;4.946;2023-06-24T09:21:06;24.80;99.90
25092;DHT22;13082;52.374;4.946;2023-06-24T09:23:36;25.00;99.90
25092;DHT22;13082;52.374;4.946;2023-06-24T09:26:02;25.10;99.90
25092;DHT22;13082;52.374;4.946;2023-06-24T09:28:28;25.10;99.90
25092;DHT22;13082;52.374;4.946;2023-06-24T09:31:06;25.10;99.90
25092;DHT22;13082;52.374;4.946;2023-06-24T09:33:33;25.10;99.90
25092;DHT22;13082;52.374;4.946;2023-06-24T09:36:02;25.20;99.90
25092;DHT22;13082;52.374;4.946;2023-06-24T09:38:37;25.20;99.90
25092;DHT22;13082;52.374;4.946;2023-06-24T09:41:05;25.20;99.90
25092;DHT22;13082;52.374;4.946;2023-06-24T09:43:36;25.30;99.90
25092;DHT22;13082;52.374;4.946;2023-06-24T09:46:03;25.40;99.90
25092;DHT22;13082;52.374;4.946;2023-06-24T09:48:30;25.40;99.90
25092;DHT22;13082;52.374;4.946;2023-06-24T09:51:00;25.30;99.90
25092;DHT22;13082;52.374;4.946;2023-06-24T09:53:33;25.40;99.90
25092;DHT22;13082;52.374;4.946;2023-06-24T09:56:01;25.50;99.90
25092;DHT22;13082;52.374;4.946;2023-06-24T09:58:31;25.60;99.90
25092;DHT22;13082;52.374;4.946;2023-06-24T10:00:59;25.60;99.90
25092;DHT22;13082;52.374;4.946;2023-06-24T10:03:27;25.70;99.90
25092;DHT22;13082;52.374;4.946;2023-06-24T10:05:53;25.70;99.90
25092;DHT22;13082;52.374;4.946;2023-06-24T10:08:19;25.80;99.90
25092;DHT22;13082;52.374;4.946;2023-06-24T10:10:45;25.90;99.90
25092;DHT22;13082;52.374;4.946;2023-06-24T10:13:11;26.00;99.90
25092;DHT22;13082;52.374;4.946;2023-06-24T10:15:37;26.10;99.90
25092;DHT22;13082;52.374;4.946;2023-06-24T10:18:03;26.00;99.90
25092;DHT22;13082;52.374;4.946;2023-06-24T10:20:29;25.70;99.90
25092;DHT22;13082;52.374;4.946;2023-06-24T10:22:54;25.80;99.90
25092;DHT22;13082;52.374;4.946;2023-06-24T10:25:20;25.90;99.90
25092;DHT22;13082;52.374;4.946;2023-06-24T10:27:53;25.90;99.90
25092;DHT22;13082;52.374;4.946;2023-06-24T10:30:20;26.00;99.90
25092;DHT22;13082;52.374;4.946;2023-06-24T10:32:51;26.20;99.90
25092;DHT22;13082;52.374;4.946;2023-06-24T10:35:26;26.20;99.90
25092;DHT22;13082;52.374;4.946;2023-06-24T10:37:57;26.40;99.90
25092;DHT22;13082;52.374;4.946;2023-06-24T10:43:25;26.50;99.90
25092;DHT22;13082;52.374;4.946;2023-06-24T10:45:52;26.50;99.90
25092;DHT22;13082;52.374;4.946;2023-06-24T10:48:18;26.60;99.90
25092;DHT22;13082;52.374;4.946;2023-06-24T10:50:45;26.70;99.90
25092;DHT22;13082;52.374;4.946;2023-06-24T10:53:13;26.70;99.90
25092;DHT22;13082;52.374;4.946;2023-06-24T10:55:39;26.70;99.90
25092;DHT22;13082;52.374;4.946;2023-06-24T10:58:12;26.60;99.90
25092;DHT22;13082;52.374;4.946;2023-06-24T11:00:42;26.50;99.90
25092;DHT22;13082;52.374;4.946;2023-06-24T11:03:13;26.40;99.90
25092;DHT22;13082;52.374;4.946;2023-06-24T11:05:44;26.50;99.90
25092;DHT22;13082;52.374;4.946;2023-06-24T11:08:10;26.60;99.90
25092;DHT22;13082;52.374;4.946;2023-06-24T11:10:46;26.60;99.90
25092;DHT22;13082;52.374;4.946;2023-06-24T11:13:12;26.40;99.90
25092;DHT22;13082;52.374;4.946;2023-06-24T11:15:39;26.40;99.90
25092;DHT22;13082;52.374;4.946;2023-06-24T11:18:08;26.30;99.90
25092;DHT22;13082;52.374;4.946;2023-06-24T11:20:38;26.10;99.90
25092;DHT22;13082;52.374;4.946;2023-06-24T11:23:08;26.00;99.90
25092;DHT22;13082;52.374;4.946;2023-06-24T11:25:39;26.00;99.90
25092;DHT22;13082;52.374;4.946;2023-06-24T11:28:05;26.20;99.90
25092;DHT22;13082;52.374;4.946;2023-06-24T11:30:37;26.30;99.90
25092;DHT22;13082;52.374;4.946;2023-06-24T11:33:02;26.30;99.90
25092;DHT22;13082;52.374;4.946;2023-06-24T11:35:28;26.30;99.90
25092;DHT22;13082;52.374;4.946;2023-06-24T11:37:58;26.40;99.90
25092;DHT22;13082;52.374;4.946;2023-06-24T11:40:23;26.40;99.90
25092;DHT22;13082;52.374;4.946;2023-06-24T11:42:49;26.30;99.90
25092;DHT22;13082;52.374;4.946;2023-06-24T11:45:20;26.30;99.90
25092;DHT22;13082;52.374;4.946;2023-06-24T11:47:46;26.10;99.90
25092;DHT22;13082;52.374;4.946;2023-06-24T11:50:11;26.00;99.90
25092;DHT22;13082;52.374;4.946;2023-06-24T11:52:44;26.00;99.90
25092;DHT22;13082;52.374;4.946;2023-06-24T11:55:21;26.00;99.90
25092;DHT22;13082;52.374;4.946;2023-06-24T11:58:02;26.10;99.90
25092;DHT22;13082;52.374;4.946;2023-06-24T12:00:40;26.30;99.90
25092;DHT22;13082;52.374;4.946;2023-06-24T12:03:08;26.40;99.90
25092;DHT22;13082;52.374;4.946;2023-06-24T12:05:35;26.50;99.90
25092;DHT22;13082;52.374;4.946;2023-06-24T12:08:06;26.60;99.90
25092;DHT22;13082;52.374;4.946;2023-06-24T12:10:33;26.60;99.90
25092;DHT22;13082;52.374;4.946;2023-06-24T12:13:00;26.50;99.90
25092;DHT22;13082;52.374;4.946;2023-06-24T12:15:26;26.40;99.90
25092;DHT22;13082;52.374;4.946;2023-06-24T12:17:52;26.50;99.90
25092;DHT22;13082;52.374;4.946;2023-06-24T12:20:17;26.50;99.90
25092;DHT22;13082;52.374;4.946;2023-06-24T12:22:44;26.60;99.90
25092;DHT22;13082;52.374;4.946;2023-06-24T12:25:10;26.70;99.90
25092;DHT22;13082;52.374;4.946;2023-06-24T12:27:37;26.80;99.90
25092;DHT22;13082;52.374;4.946;2023-06-24T12:30:03;26.80;99.90
25092;DHT22;13082;52.374;4.946;2023-06-24T12:32:29;26.80;99.90
25092;DHT22;13082;52.374;4.946;2023-06-24T12:34:55;26.80;99.90
25092;DHT22;13082;52.374;4.946;2023-06-24T12:37:21;26.80;99.90
25092;DHT22;13082;52.374;4.946;2023-06-24T12:39:47;26.90;99.90
25092;DHT22;13082;52.374;4.946;2023-06-24T12:42:13;26.90;99.90
25092;DHT22;13082;52.374;4.946;2023-06-24T12:44:38;26.90;99.90
25092;DHT22;13082;52.374;4.946;2023-06-24T12:47:04;27.10;99.90
25092;DHT22;13082;52.374;4.946;2023-06-24T12:49:30;27.20;99.90
25092;DHT22;13082;52.374;4.946;2023-06-24T12:51:55;27.30;99.90
25092;DHT22;13082;52.374;4.946;2023-06-24T12:54:21;27.30;99.90
25092;DHT22;13082;52.374;4.946;2023-06-24T12:56:46;27.20;99.90
25092;DHT22;13082;52.374;4.946;2023-06-24T12:59:12;27.20;99.90
25092;DHT22;13082;52.374;4.946;2023-06-24T13:01:37;27.20;99.90
25092;DHT22;13082;52.374;4.946;2023-06-24T13:04:03;27.30;99.90
25092;DHT22;13082;52.374;4.946;2023-06-24T13:06:29;27.20;99.90
25092;DHT22;13082;52.374;4.946;2023-06-24T13:08:55;27.30;99.90
25092;DHT22;13082;52.374;4.946;2023-06-24T13:11:20;27.30;99.90
25092;DHT22;13082;52.374;4.946;2023-06-24T13:13:46;27.40;99.90
25092;DHT22;13082;52.374;4.946;2023-06-24T13:16:11;27.30;99.90
25092;DHT22;13082;52.374;4.946;2023-06-24T13:18:37;27.30;99.90
25092;DHT22;13082;52.374;4.946;2023-06-24T13:21:03;27.40;99.90
25092;DHT22;13082;52.374;4.946;2023-06-24T13:23:29;27.50;99.90
25092;DHT22;13082;52.374;4.946;2023-06-24T13:25:54;27.60;99.90
25092;DHT22;13082;52.374;4.946;2023-06-24T13:28:20;27.70;99.90
25092;DHT22;13082;52.374;4.946;2023-06-24T13:30:45;27.70;99.90
25092;DHT22;13082;52.374;4.946;2023-06-24T13:33:11;27.70;99.90
25092;DHT22;13082;52.374;4.946;2023-06-24T13:35:36;27.80;99.90
25092;DHT22;13082;52.374;4.946;2023-06-24T13:38:02;27.80;99.90
25092;DHT22;13082;52.374;4.946;2023-06-24T13:40:28;27.80;99.90
25092;DHT22;13082;52.374;4.946;2023-06-24T13:42:53;27.80;99.90
25092;DHT22;13082;52.374;4.946;2023-06-24T13:45:19;27.80;99.90
25092;DHT22;13082;52.374;4.946;2023-06-24T13:47:44;27.70;99.90
25092;DHT22;13082;52.374;4.946;2023-06-24T13:50:10;27.70;99.90
25092;DHT22;13082;52.374;4.946;2023-06-24T13:52:37;27.80;99.90
25092;DHT22;13082;52.374;4.946;2023-06-24T13:55:04;27.80;99.90
25092;DHT22;13082;52.374;4.946;2023-06-24T13:57:30;27.90;99.90
25092;DHT22;13082;52.374;4.946;2023-06-24T13:59:55;27.80;99.90
25092;DHT22;13082;52.374;4.946;2023-06-24T14:02:21;27.70;99.90
25092;DHT22;13082;52.374;4.946;2023-06-24T14:04:46;27.70;99.90
25092;DHT22;13082;52.374;4.946;2023-06-24T14:07:13;27.80;99.90
25092;DHT22;13082;52.374;4.946;2023-06-24T14:09:39;27.80;99.90
25092;DHT22;13082;52.374;4.946;2023-06-24T14:12:06;27.70;99.90
25092;DHT22;13082;52.374;4.946;2023-06-24T14:14:34;27.80;99.90
25092;DHT22;13082;52.374;4.946;2023-06-24T14:16:59;27.70;99.90
25092;DHT22;13082;52.374;4.946;2023-06-24T14:19:25;27.70;99.90
25092;DHT22;13082;52.374;4.946;2023-06-24T14:21:50;27.70;99.90
25092;DHT22;13082;52.374;4.946;2023-06-24T14:24:16;27.70;99.90
25092;DHT22;13082;52.374;4.946;2023-06-24T14:26:42;27.80;99.90
25092;DHT22;13082;52.374;4.946;2023-06-24T14:29:07;27.80;99.90
25092;DHT22;13082;52.374;4.946;2023-06-24T14:31:33;27.80;99.90
25092;DHT22;13082;52.374;4.946;2023-06-24T14:33:58;27.80;99.90
25092;DHT22;13082;52.374;4.946;2023-06-24T14:36:24;27.80;99.90
25092;DHT22;13082;52.374;4.946;2023-06-24T14:38:49;27.80;99.90
25092;DHT22;13082;52.374;4.946;2023-06-24T14:41:15;27.60;99.90
25092;DHT22;13082;52.374;4.946;2023-06-24T14:43:40;27.70;99.90
25092;DHT22;13082;52.374;4.946;2023-06-24T14:46:06;27.70;99.90
25092;DHT22;13082;52.374;4.946;2023-06-24T14:48:32;27.80;99.90
25092;DHT22;13082;52.374;4.946;2023-06-24T14:50:57;27.80;99.90
25092;DHT22;13082;52.374;4.946;2023-06-24T14:53:23;27.60;99.90
25092;DHT22;13082;52.374;4.946;2023-06-24T14:55:48;27.60;99.90
25092;DHT22;13082;52.374;4.946;2023-06-24T14:58:14;27.50;99.90
25092;DHT22;13082;52.374;4.946;2023-06-24T15:00:40;27.50;99.90
25092;DHT22;13082;52.374;4.946;2023-06-24T15:03:05;27.40;99.90
25092;DHT22;13082;52.374;4.946;2023-06-24T15:05:32;27.40;99.90
25092;DHT22;13082;52.374;4.946;2023-06-24T15:07:59;27.40;99.90
25092;DHT22;13082;52.374;4.946;2023-06-24T15:10:25;27.40;99.90
25092;DHT22;13082;52.374;4.946;2023-06-24T15:12:50;27.30;99.90
25092;DHT22;13082;52.374;4.946;2023-06-24T15:15:16;27.20;99.90
25092;DHT22;13082;52.374;4.946;2023-06-24T15:17:41;27.30;99.90
25092;DHT22;13082;52.374;4.946;2023-06-24T15:20:10;27.20;99.90
25092;DHT22;13082;52.374;4.946;2023-06-24T15:22:36;27.20;99.90
25092;DHT22;13082;52.374;4.946;2023-06-24T15:25:02;27.20;99.90
25092;DHT22;13082;52.374;4.946;2023-06-24T15:27:27;27.30;99.90
25092;DHT22;13082;52.374;4.946;2023-06-24T15:29:53;27.30;99.90
25092;DHT22;13082;52.374;4.946;2023-06-24T15:32:18;27.30;99.90
25092;DHT22;13082;52.374;4.946;2023-06-24T15:34:44;27.30;99.90
25092;DHT22;13082;52.374;4.946;2023-06-24T15:37:10;27.30;99.90